createdAt,value
2023-04-28T00:00:01.861Z,34.52
2023-04-28T00:15:01.889Z,34.52
2023-04-28T00:30:02.497Z,34.52
2023-04-28T00:45:03.020Z,34.52
2023-04-28T01:00:02.238Z,34.52
2023-04-28T01:15:01.958Z,34.52
2023-04-28T01:30:02.358Z,34.52
2023-04-28T01:45:01.631Z,34.52
2023-04-28T02:00:01.997Z,34.52
2023-04-28T02:15:01.816Z,34.52
2023-04-28T02:30:02.377Z,34.52
2023-04-28T02:45:02.975Z,34.52
2023-04-28T03:00:01.418Z,34.52
2023-04-28T03:15:01.878Z,34.52
2023-04-28T03:30:02.423Z,34.52
2023-04-28T03:45:01.323Z,34.52
2023-04-28T04:00:01.685Z,34.52
2023-04-28T04:15:02.178Z,34.52
2023-04-28T04:30:02.420Z,34.52
2023-04-28T04:45:03.008Z,34.52
2023-04-28T05:00:02.262Z,34.52
2023-04-28T05:15:01.873Z,34.52
2023-04-28T05:30:02.457Z,34.52
2023-04-28T05:45:02.894Z,34.52
2023-04-28T06:00:01.556Z,34.52
2023-04-28T06:15:02.032Z,34.52
2023-04-28T06:30:02.309Z,34.52
2023-04-28T06:45:01.630Z,34.52
2023-04-28T07:00:01.983Z,34.52
2023-04-28T07:15:02.064Z,34.52
2023-04-28T07:30:08.999Z,34.52
2023-04-28T07:45:02.284Z,34.52
2023-04-28T08:00:02.862Z,34.52
2023-04-28T08:15:01.468Z,34.52
2023-04-28T08:30:01.815Z,118.42
2023-04-28T08:45:02.175Z,118.42
2023-04-28T09:00:02.529Z,118.42
2023-04-28T09:15:01.885Z,118.42
2023-04-28T09:30:02.236Z,118.42
2023-04-28T09:45:02.232Z,118.42
2023-04-28T10:00:02.874Z,118.42
2023-04-28T10:15:02.153Z,118.42
2023-04-28T10:30:02.025Z,118.42
2023-04-28T10:45:02.247Z,118.42
2023-04-28T11:00:02.906Z,118.42
2023-04-28T11:15:01.582Z,118.42
2023-04-28T11:30:06.998Z,118.42
2023-04-28T11:45:02.445Z,118.42
2023-04-28T12:00:02.873Z,118.42
2023-04-28T12:15:01.514Z,118.42
2023-04-28T12:30:01.882Z,118.42
2023-04-28T12:45:02.409Z,118.42
2023-04-28T13:00:01.612Z,118.42
2023-04-28T13:15:01.857Z,118.42
2023-04-28T13:30:02.240Z,118.42
2023-04-28T13:45:02.761Z,118.42
2023-04-28T14:00:01.889Z,118.42
2023-04-28T14:15:02.186Z,118.42
2023-04-28T14:30:02.333Z,118.42
2023-04-28T14:45:02.929Z,118.42
2023-04-28T15:00:02.198Z,118.42
2023-04-28T15:15:01.784Z,118.42
2023-04-28T15:30:02.804Z,119.7
2023-04-28T15:45:01.449Z,118.83
2023-04-28T16:00:02.129Z,119.15
2023-04-28T16:15:02.414Z,121.17
2023-04-28T16:30:02.347Z,121.58
2023-04-28T16:45:02.212Z,122.19
2023-04-28T17:00:02.114Z,123.4
2023-04-28T17:15:02.524Z,124.1
2023-04-28T17:30:02.303Z,123.72
2023-04-28T17:45:02.198Z,122.31
2023-04-28T18:00:02.187Z,122.71
2023-04-28T18:15:01.994Z,123.36
2023-04-28T18:30:01.588Z,124.21
2023-04-28T18:45:01.648Z,124.9
2023-04-28T19:00:02.144Z,125.67
2023-04-28T19:15:01.525Z,126.76
2023-04-28T19:30:02.326Z,127.33
2023-04-28T19:45:02.231Z,127.8
2023-04-28T20:00:02.510Z,126.92
2023-04-28T20:15:01.575Z,127.16
2023-04-28T20:30:02.658Z,127.8
2023-04-28T20:45:02.123Z,126.6
2023-04-28T21:00:01.450Z,126.6
2023-04-28T21:15:01.910Z,126.84
2023-04-28T21:30:01.844Z,127.8
2023-04-28T21:45:02.132Z,127.49
2023-04-28T22:00:01.534Z,128.14
2023-04-28T22:15:02.168Z,128.3
2023-04-28T22:30:01.885Z,128.46
2023-04-28T22:45:03.573Z,128.78
2023-04-28T23:00:01.612Z,129.11
2023-04-28T23:15:02.484Z,129.19
2023-04-28T23:30:01.652Z,129.43
2023-04-28T23:45:01.631Z,129.19
